Time;durP1;ratioP1;P1;durP2;ratioP2;P2;SDS_P1;SDS_P2;PMS_P1;PMS_P2;Temp;Humidity;BMP_temperature;BMP_pressure;BME280_temperature;BME280_humidity;BME280_pressure;Samples;Min_cycle;Max_cycle;Signal;HPM_P1;HPM_P2
2022/03/31 00:01:29;;;;;;;34.30;8.57;;;15.70;77.90;;;;;;5075917;28;20040;-60
2022/03/31 00:03:54;;;;;;;31.88;8.40;;;15.60;77.90;;;;;;5100211;27;20035;-60
2022/03/31 00:06:20;;;;;;;32.10;8.98;;;15.60;78.00;;;;;;5105243;27;20031;-59
2022/03/31 00:08:45;;;;;;;30.83;8.05;;;15.60;78.00;;;;;;5104298;27;20467;-60
2022/03/31 00:11:12;;;;;;;29.67;7.93;;;15.60;78.10;;;;;;5105703;27;20111;-59
2022/03/31 00:13:37;;;;;;;27.00;7.47;;;15.60;78.10;;;;;;5106053;27;20056;-60
2022/03/31 00:16:03;;;;;;;26.98;8.05;;;15.50;78.40;;;;;;5109452;27;20059;-60
2022/03/31 00:18:29;;;;;;;21.95;6.85;;;15.50;78.10;;;;;;5100798;27;20035;-59
2022/03/31 00:20:55;;;;;;;28.50;7.50;;;15.50;78.20;;;;;;5103421;27;20019;-59
2022/03/31 00:23:21;;;;;;;27.33;7.28;;;15.50;78.30;;;;;;5083696;28;20074;-59
2022/03/31 00:25:46;;;;;;;29.38;7.18;;;15.50;78.30;;;;;;5101285;27;20438;-59
2022/03/31 00:28:12;;;;;;;22.85;7.40;;;15.50;78.30;;;;;;5103614;27;20131;-60
2022/03/31 00:30:37;;;;;;;21.40;6.85;;;15.40;78.20;;;;;;5109717;27;20162;-60
2022/03/31 00:33:03;;;;;;;18.48;6.60;;;15.40;78.20;;;;;;5090953;27;20053;-60
2022/03/31 00:35:29;;;;;;;19.95;7.03;;;15.50;78.20;;;;;;5115780;27;20085;-59
2022/03/31 00:37:54;;;;;;;23.77;6.93;;;15.40;78.20;;;;;;5112821;27;20036;-59
2022/03/31 00:40:20;;;;;;;21.75;7.13;;;15.40;78.20;;;;;;5091241;27;20112;-60
2022/03/31 00:42:49;;;;;;;21.75;7.20;;;15.40;78.20;;;;;;5118563;27;20068;-59
2022/03/31 00:45:17;;;;;;;15.45;7.00;;;15.40;78.20;;;;;;5072558;27;20027;-59
2022/03/31 00:47:42;;;;;;;19.95;7.18;;;15.40;78.20;;;;;;5076352;27;20046;-59
2022/03/31 00:50:09;;;;;;;17.10;6.75;;;15.30;78.10;;;;;;5086495;27;20020;-59
2022/03/31 00:52:35;;;;;;;18.20;7.63;;;15.30;78.10;;;;;;5114635;27;20054;-59
2022/03/31 00:55:00;;;;;;;20.88;6.70;;;15.30;78.10;;;;;;5093331;27;20124;-59
2022/03/31 00:57:26;;;;;;;30.77;7.53;;;15.30;78.10;;;;;;5090966;27;20050;-59
2022/03/31 00:59:52;;;;;;;29.23;7.20;;;15.30;78.10;;;;;;5091195;27;20035;-60
2022/03/31 01:02:18;;;;;;;25.17;6.82;;;15.30;78.10;;;;;;5093409;27;20033;-59
2022/03/31 01:04:43;;;;;;;24.65;7.40;;;15.30;78.20;;;;;;5118814;27;20020;-60
2022/03/31 01:07:09;;;;;;;23.67;6.57;;;15.20;78.20;;;;;;5091828;27;20475;-59
2022/03/31 01:09:34;;;;;;;24.95;6.70;;;15.20;78.30;;;;;;5116489;27;20569;-60
2022/03/31 01:12:01;;;;;;;17.35;6.05;;;15.20;78.30;;;;;;5084959;27;20040;-59
2022/03/31 01:14:26;;;;;;;17.52;6.45;;;15.20;78.30;;;;;;5070938;27;20558;-59
2022/03/31 01:16:52;;;;;;;16.50;6.47;;;15.20;78.30;;;;;;5115899;27;20114;-59
2022/03/31 01:19:18;;;;;;;23.73;5.78;;;15.20;78.30;;;;;;5112261;27;20504;-60
2022/03/31 01:21:45;;;;;;;22.85;6.45;;;15.20;78.40;;;;;;5116872;27;20038;-60
2022/03/31 01:24:13;;;;;;;20.75;6.50;;;15.10;78.40;;;;;;5090135;27;20080;-59
2022/03/31 01:26:39;;;;;;;20.27;6.03;;;15.10;78.40;;;;;;5091814;27;20023;-60
2022/03/31 01:29:05;;;;;;;25.30;7.00;;;15.10;78.40;;;;;;5115350;27;20043;-59
2022/03/31 01:31:31;;;;;;;14.75;6.13;;;15.10;78.40;;;;;;5092914;28;20364;-60
2022/03/31 01:33:57;;;;;;;17.85;6.70;;;15.00;78.40;;;;;;5093497;27;20035;-60
2022/03/31 01:36:23;;;;;;;16.40;6.15;;;15.00;78.50;;;;;;5080654;27;20035;-60
2022/03/31 01:38:49;;;;;;;18.20;6.28;;;15.00;78.50;;;;;;5081509;28;20578;-60
2022/03/31 01:41:14;;;;;;;21.92;6.32;;;15.00;78.40;;;;;;5105755;27;20141;-59
2022/03/31 01:43:40;;;;;;;14.27;4.95;;;15.10;78.40;;;;;;5104687;27;20036;-59
2022/03/31 01:46:08;;;;;;;17.40;6.40;;;15.10;78.30;;;;;;5107544;27;20023;-59
2022/03/31 01:48:34;;;;;;;19.85;6.35;;;15.00;78.40;;;;;;5087932;27;20026;-59
2022/03/31 01:51:00;;;;;;;20.98;6.78;;;15.00;78.50;;;;;;5088794;27;20028;-59
2022/03/31 01:53:26;;;;;;;16.70;5.78;;;15.00;78.60;;;;;;5077593;28;20024;-60
2022/03/31 01:55:51;;;;;;;26.15;6.60;;;15.00;78.60;;;;;;5111636;28;20313;-59
2022/03/31 01:58:17;;;;;;;18.23;5.68;;;14.90;78.60;;;;;;5114835;28;20066;-59
2022/03/31 02:00:42;;;;;;;20.27;5.40;;;14.90;78.60;;;;;;5091745;28;20055;-60
2022/03/31 02:03:08;;;;;;;16.67;5.80;;;14.90;78.70;;;;;;5089621;28;20519;-59
2022/03/31 02:05:33;;;;;;;15.15;5.43;;;14.90;78.70;;;;;;5086842;28;20039;-60
2022/03/31 02:07:59;;;;;;;17.35;5.70;;;14.90;78.70;;;;;;5118565;28;20031;-60
2022/03/31 02:10:27;;;;;;;14.32;5.55;;;14.90;78.60;;;;;;5118464;28;20027;-60
2022/03/31 02:12:54;;;;;;;14.23;5.70;;;14.80;78.50;;;;;;5111758;28;20031;-59
2022/03/31 02:15:22;;;;;;;14.95;5.40;;;14.90;78.60;;;;;;5070099;28;20164;-60
2022/03/31 02:17:48;;;;;;;12.85;5.18;;;14.80;78.60;;;;;;5075062;28;20062;-59
2022/03/31 02:20:14;;;;;;;39.92;7.30;;;14.80;78.70;;;;;;5117758;28;20036;-59
2022/03/31 02:22:39;;;;;;;118.22;14.18;;;14.80;78.70;;;;;;5084621;28;20089;-59
2022/03/31 02:25:08;;;;;;;48.72;9.95;;;14.80;78.80;;;;;;5075073;28;20107;-59
2022/03/31 02:27:33;;;;;;;40.05;8.63;;;14.80;78.70;;;;;;5102846;28;20046;-60
2022/03/31 02:29:59;;;;;;;49.83;11.43;;;14.80;78.70;;;;;;5100585;28;20684;-59
2022/03/31 02:32:24;;;;;;;73.82;12.23;;;14.80;78.80;;;;;;5104122;28;20032;-60
2022/03/31 02:34:51;;;;;;;67.00;12.55;;;14.70;78.80;;;;;;5106745;28;20051;-60
2022/03/31 02:37:16;;;;;;;94.63;12.70;;;14.70;78.80;;;;;;5103148;28;20036;-60
2022/03/31 02:39:42;;;;;;;55.25;10.63;;;14.70;78.90;;;;;;5104560;28;20447;-60
2022/03/31 02:42:07;;;;;;;54.55;9.50;;;14.70;78.70;;;;;;5099424;28;20554;-60
2022/03/31 02:44:33;;;;;;;53.92;9.88;;;14.70;78.60;;;;;;5081923;28;20054;-60
2022/03/31 02:46:58;;;;;;;46.55;9.32;;;14.70;78.50;;;;;;5100756;28;20052;-59
2022/03/31 02:49:24;;;;;;;53.45;8.73;;;14.70;78.70;;;;;;5096234;28;20044;-60
2022/03/31 02:51:49;;;;;;;48.42;8.48;;;14.70;78.80;;;;;;5087879;28;20016;-60
2022/03/31 02:56:59;;;;;;;49.78;9.30;;;14.60;79.00;;;;;;5106800;28;20066;-60
2022/03/31 02:59:24;;;;;;;37.47;8.88;;;14.60;79.00;;;;;;5080791;28;20056;-60
2022/03/31 03:01:50;;;;;;;45.70;8.15;;;14.60;79.00;;;;;;5106199;27;20562;-60
2022/03/31 03:04:16;;;;;;;57.15;9.30;;;14.60;79.00;;;;;;5103451;27;20032;-60
2022/03/31 03:06:42;;;;;;;44.42;9.52;;;14.60;79.70;;;;;;5090870;27;20051;-59
2022/03/31 03:09:07;;;;;;;31.75;8.27;;;14.60;78.90;;;;;;5105725;27;20035;-60
2022/03/31 03:11:33;;;;;;;53.50;10.27;;;14.60;78.90;;;;;;5104820;27;20394;-60
2022/03/31 03:13:59;;;;;;;36.92;9.20;;;14.60;78.90;;;;;;5083191;28;20675;-60
2022/03/31 03:16:25;;;;;;;44.95;9.88;;;14.60;78.90;;;;;;5084782;28;20483;-59
2022/03/31 03:18:52;;;;;;;36.22;7.97;;;14.60;78.90;;;;;;5085167;28;20036;-60
2022/03/31 03:21:17;;;;;;;39.33;8.95;;;14.60;78.90;;;;;;5112811;27;20138;-60
2022/03/31 03:23:43;;;;;;;37.28;9.57;;;14.60;78.70;;;;;;5105314;27;20124;-60
2022/03/31 03:26:08;;;;;;;42.55;10.57;;;14.60;78.90;;;;;;5101321;27;20032;-60
2022/03/31 03:28:37;;;;;;;40.47;11.40;;;14.60;79.20;;;;;;5085218;27;20148;-60
2022/03/31 03:31:05;;;;;;;35.90;10.63;;;14.60;79.20;;;;;;5105559;27;20078;-60
2022/03/31 03:33:31;;;;;;;38.15;10.02;;;14.60;79.20;;;;;;5093995;28;20023;-60
2022/03/31 03:35:58;;;;;;;28.17;8.48;;;14.60;79.10;;;;;;5107790;27;20050;-60
2022/03/31 03:38:23;;;;;;;29.52;8.70;;;14.50;79.00;;;;;;5087312;27;20023;-60
2022/03/31 03:40:49;;;;;;;33.90;8.27;;;14.60;79.20;;;;;;5113095;27;20034;-60
2022/03/31 03:43:14;;;;;;;32.85;9.77;;;14.60;79.20;;;;;;5103859;27;20088;-60
2022/03/31 03:45:40;;;;;;;49.60;9.02;;;14.60;79.00;;;;;;5104088;27;20039;-61
2022/03/31 03:48:11;;;;;;;41.85;9.15;;;14.60;79.10;;;;;;5104203;27;20031;-60
2022/03/31 03:50:38;;;;;;;43.17;9.10;;;14.60;79.10;;;;;;5094062;27;20035;-60
2022/03/31 03:53:04;;;;;;;38.33;9.13;;;14.50;79.00;;;;;;5102755;27;20118;-60
2022/03/31 03:55:34;;;;;;;44.30;10.15;;;14.50;79.10;;;;;;5100255;27;20190;-60
2022/03/31 03:57:59;;;;;;;42.85;9.32;;;14.50;79.20;;;;;;5109901;27;20126;-60
2022/03/31 04:00:25;;;;;;;57.42;11.43;;;14.50;79.20;;;;;;5085115;27;20153;-60
2022/03/31 04:02:51;;;;;;;50.65;10.07;;;14.50;79.10;;;;;;5077927;27;20081;-60
2022/03/31 04:05:17;;;;;;;51.03;9.40;;;14.50;79.30;;;;;;5110572;27;20098;-60
2022/03/31 04:07:43;;;;;;;48.40;10.35;;;14.50;79.30;;;;;;5105575;27;20420;-60
2022/03/31 04:10:10;;;;;;;85.10;13.85;;;14.50;79.20;;;;;;5087432;28;20096;-59
2022/03/31 04:12:36;;;;;;;90.32;13.55;;;14.50;79.20;;;;;;5108003;27;20027;-59
2022/03/31 04:15:02;;;;;;;76.32;13.52;;;14.50;79.20;;;;;;5108636;27;20394;-59
2022/03/31 04:17:28;;;;;;;89.53;13.00;;;14.50;79.20;;;;;;5105827;27;20020;-60
2022/03/31 04:19:54;;;;;;;97.50;13.60;;;14.50;79.10;;;;;;5105824;27;20023;-60
2022/03/31 04:22:19;;;;;;;66.53;13.23;;;14.50;79.50;;;;;;5101196;27;21278;-60
2022/03/31 04:24:45;;;;;;;62.92;12.45;;;14.50;79.50;;;;;;5084726;28;20373;-59
2022/03/31 04:27:10;;;;;;;81.05;11.85;;;14.50;79.40;;;;;;5082365;28;20039;-60
2022/03/31 04:29:36;;;;;;;93.25;13.15;;;14.50;79.50;;;;;;5102570;27;20024;-60
2022/03/31 04:32:01;;;;;;;104.68;12.68;;;14.50;79.50;;;;;;5103624;27;20119;-62
2022/03/31 04:34:27;;;;;;;91.05;12.95;;;14.50;79.50;;;;;;5085207;27;20039;-59
2022/03/31 04:36:52;;;;;;;89.50;14.90;;;14.40;79.50;;;;;;5082387;27;20121;-59
2022/03/31 04:39:18;;;;;;;75.00;14.15;;;14.40;79.70;;;;;;5100834;27;20120;-60
2022/03/31 04:41:43;;;;;;;77.57;13.77;;;14.40;79.90;;;;;;5081667;27;20028;-60
2022/03/31 04:44:09;;;;;;;80.90;12.35;;;14.40;79.90;;;;;;5100970;27;20033;-59
2022/03/31 04:46:35;;;;;;;95.88;14.10;;;14.40;79.90;;;;;;5082123;28;20115;-59
2022/03/31 04:49:00;;;;;;;75.40;14.10;;;14.40;79.90;;;;;;5103169;27;20031;-60
2022/03/31 04:51:26;;;;;;;79.28;13.20;;;14.40;79.90;;;;;;5105686;27;20038;-59
2022/03/31 04:53:51;;;;;;;61.60;12.88;;;14.30;79.80;;;;;;5085167;28;20032;-59
2022/03/31 04:56:17;;;;;;;70.15;13.73;;;14.40;79.90;;;;;;5081302;28;20596;-59
2022/03/31 04:58:43;;;;;;;80.10;13.35;;;14.40;79.80;;;;;;5081643;27;20458;-60
2022/03/31 05:01:08;;;;;;;62.35;12.02;;;14.40;79.80;;;;;;5067562;28;20036;-60
2022/03/31 05:03:34;;;;;;;83.78;13.23;;;14.40;79.60;;;;;;5104532;27;20526;-59
2022/03/31 05:05:59;;;;;;;79.70;14.60;;;14.30;79.70;;;;;;5082271;28;20066;-60
2022/03/31 05:08:25;;;;;;;67.57;13.02;;;14.40;80.00;;;;;;5099332;27;20031;-59
2022/03/31 05:10:50;;;;;;;80.10;12.73;;;14.30;80.00;;;;;;5102821;27;20027;-59
2022/03/31 05:13:17;;;;;;;68.93;14.00;;;14.40;80.00;;;;;;5104805;27;20015;-60
2022/03/31 05:15:42;;;;;;;70.43;13.98;;;14.40;80.00;;;;;;5101956;27;20835;-59
2022/03/31 05:18:08;;;;;;;53.90;14.23;;;14.40;79.70;;;;;;5087790;27;20027;-59
2022/03/31 05:20:34;;;;;;;76.28;16.67;;;14.40;79.70;;;;;;5101882;27;20024;-60
2022/03/31 05:22:59;;;;;;;77.57;17.42;;;14.40;79.90;;;;;;5045087;28;20803;-59
2022/03/31 05:25:25;;;;;;;70.95;15.95;;;14.40;80.10;;;;;;5071959;28;20040;-60
2022/03/31 05:27:51;;;;;;;69.72;14.23;;;14.30;80.20;;;;;;5077582;27;20038;-60
2022/03/31 05:33:02;;;;;;;62.08;13.27;;;14.30;80.20;;;;;;5081702;28;20458;-60
2022/03/31 05:35:28;;;;;;;48.00;13.10;;;14.20;80.00;;;;;;5097541;28;20029;-59
2022/03/31 05:37:54;;;;;;;47.00;12.35;;;14.20;79.90;;;;;;5083246;28;20330;-59
2022/03/31 05:40:20;;;;;;;53.30;11.95;;;14.30;80.00;;;;;;5079872;28;20027;-60
2022/03/31 05:42:45;;;;;;;54.40;13.43;;;14.30;80.00;;;;;;5079135;28;20430;-59
2022/03/31 05:45:12;;;;;;;44.42;13.43;;;14.30;79.60;;;;;;5079565;28;20055;-59
2022/03/31 05:47:38;;;;;;;55.60;11.98;;;14.30;79.60;;;;;;5094693;28;20040;-59
2022/03/31 05:50:04;;;;;;;65.22;14.82;;;14.30;79.50;;;;;;5073236;28;20028;-59
2022/03/31 05:52:30;;;;;;;62.20;13.35;;;14.40;79.70;;;;;;5092957;28;20247;-60
2022/03/31 05:54:55;;;;;;;48.67;13.32;;;14.30;79.40;;;;;;5091174;28;20152;-60
2022/03/31 05:57:21;;;;;;;50.63;12.68;;;14.30;79.50;;;;;;5080612;28;20736;-60
2022/03/31 05:59:46;;;;;;;52.42;12.48;;;14.30;79.60;;;;;;5079109;28;20104;-60
2022/03/31 06:02:12;;;;;;;49.83;12.27;;;14.30;79.50;;;;;;5080372;28;20054;-60
2022/03/31 06:04:38;;;;;;;43.38;12.27;;;14.30;79.40;;;;;;5091606;28;20361;-60
2022/03/31 06:07:04;;;;;;;55.92;13.20;;;14.30;79.50;;;;;;5077118;28;20032;-60
2022/03/31 06:09:30;;;;;;;46.75;12.60;;;14.30;79.40;;;;;;5094876;28;20696;-60
2022/03/31 06:11:55;;;;;;;52.95;13.05;;;14.30;79.40;;;;;;5096634;28;20032;-60
2022/03/31 06:14:21;;;;;;;60.50;13.85;;;14.30;79.40;;;;;;5070959;28;20040;-59
2022/03/31 06:16:48;;;;;;;83.60;14.00;;;14.30;79.50;;;;;;5090682;28;20351;-60
2022/03/31 06:19:13;;;;;;;56.58;12.35;;;14.30;79.50;;;;;;5072901;28;20053;-60
2022/03/31 06:21:40;;;;;;;53.80;13.00;;;14.30;79.50;;;;;;5097124;28;20120;-59
2022/03/31 06:24:05;;;;;;;47.95;11.18;;;14.30;79.60;;;;;;5098120;28;20039;-60
2022/03/31 06:26:31;;;;;;;53.47;11.25;;;14.30;79.60;;;;;;5080361;28;20035;-60
2022/03/31 06:28:56;;;;;;;55.58;12.00;;;14.30;79.60;;;;;;5079869;28;20110;-59
2022/03/31 06:31:23;;;;;;;52.67;11.70;;;14.20;79.70;;;;;;5056209;28;20115;-60
2022/03/31 06:33:49;;;;;;;52.60;12.25;;;14.30;79.60;;;;;;5098829;28;20488;-60
2022/03/31 06:36:14;;;;;;;44.10;11.85;;;14.20;79.60;;;;;;5081991;27;20020;-58
2022/03/31 06:38:40;;;;;;;41.97;10.77;;;14.20;80.20;;;;;;5097959;27;20027;-60
2022/03/31 06:41:10;;;;;;;42.78;10.35;;;14.20;79.60;;;;;;5114556;27;20039;-59
2022/03/31 06:43:39;;;;;;;54.38;10.82;;;14.20;79.50;;;;;;5112313;27;20154;-60
2022/03/31 06:46:06;;;;;;;41.55;11.52;;;14.30;79.60;;;;;;5109402;27;20039;-59
2022/03/31 06:48:31;;;;;;;37.60;11.35;;;14.20;79.60;;;;;;5099779;27;20042;-60
2022/03/31 06:50:57;;;;;;;40.13;10.18;;;14.20;79.60;;;;;;5115367;27;20042;-59
2022/03/31 06:53:23;;;;;;;36.42;10.73;;;14.20;79.70;;;;;;5099322;27;20389;-60
2022/03/31 06:55:49;;;;;;;36.67;10.25;;;14.20;79.80;;;;;;5100300;27;20050;-60
2022/03/31 06:58:15;;;;;;;34.90;10.70;;;14.20;79.90;;;;;;5118553;27;20044;-59
2022/03/31 07:00:40;;;;;;;38.50;11.05;;;14.20;79.90;;;;;;5078916;27;20472;-59
2022/03/31 07:03:06;;;;;;;30.08;10.75;;;14.20;80.00;;;;;;5119697;27;20038;-59
2022/03/31 07:05:34;;;;;;;35.58;10.18;;;14.20;80.00;;;;;;5102608;27;20031;-60
2022/03/31 07:08:00;;;;;;;37.50;10.93;;;14.20;80.00;;;;;;5117847;27;20108;-59
2022/03/31 07:10:25;;;;;;;45.35;10.82;;;14.20;80.00;;;;;;5101115;27;20239;-59
2022/03/31 07:12:51;;;;;;;53.35;12.82;;;14.20;79.90;;;;;;5121012;27;20147;-60
2022/03/31 07:15:16;;;;;;;54.88;13.13;;;14.30;80.00;;;;;;5118677;27;20072;-61
2022/03/31 07:17:42;;;;;;;84.13;14.50;;;14.30;80.20;;;;;;5096015;27;20166;-61
2022/03/31 07:20:08;;;;;;;69.43;14.63;;;14.30;80.20;;;;;;5119964;27;20126;-60
2022/03/31 07:22:34;;;;;;;59.05;12.57;;;14.30;80.40;;;;;;5117796;27;20055;-60
2022/03/31 07:24:59;;;;;;;69.28;13.15;;;14.30;80.20;;;;;;5114712;27;20115;-60
2022/03/31 07:27:25;;;;;;;53.90;11.52;;;14.30;80.40;;;;;;5118168;27;20026;-60
2022/03/31 07:29:50;;;;;;;58.72;12.48;;;14.30;80.50;;;;;;5111308;27;20146;-59
2022/03/31 07:32:16;;;;;;;54.65;11.90;;;14.30;80.50;;;;;;5080667;27;21550;-60
2022/03/31 07:34:42;;;;;;;82.63;15.15;;;14.30;80.60;;;;;;5118694;27;20051;-59
2022/03/31 07:37:08;;;;;;;77.00;14.57;;;14.30;80.70;;;;;;5102823;27;20495;-59
2022/03/31 07:39:35;;;;;;;89.35;16.80;;;14.40;80.70;;;;;;5120538;27;20354;-59
2022/03/31 07:42:02;;;;;;;87.78;14.23;;;14.40;80.50;;;;;;5104284;27;20031;-60
2022/03/31 07:44:27;;;;;;;91.07;16.30;;;14.40;80.40;;;;;;5076931;27;20046;-59
2022/03/31 07:46:54;;;;;;;71.80;13.75;;;14.40;80.40;;;;;;5109145;27;20979;-60
2022/03/31 07:49:20;;;;;;;63.38;14.55;;;14.40;80.40;;;;;;5102012;27;20055;-60
2022/03/31 07:51:45;;;;;;;69.43;13.07;;;14.40;80.30;;;;;;5121187;27;20015;-59
2022/03/31 07:54:11;;;;;;;70.10;13.18;;;14.40;80.00;;;;;;5076106;27;20621;-59
2022/03/31 07:56:36;;;;;;;64.88;13.38;;;14.50;80.10;;;;;;5118129;27;20180;-59
2022/03/31 07:59:02;;;;;;;58.13;13.15;;;14.50;80.00;;;;;;5118264;27;20696;-59
2022/03/31 08:01:27;;;;;;;66.13;12.68;;;14.50;80.00;;;;;;5095675;27;20039;-59
2022/03/31 08:03:53;;;;;;;58.92;13.52;;;14.50;80.10;;;;;;5097174;27;20019;-60
2022/03/31 08:06:19;;;;;;;55.45;12.55;;;14.50;80.00;;;;;;5118980;27;20121;-59
2022/03/31 08:08:45;;;;;;;61.92;12.07;;;14.50;80.10;;;;;;5107117;27;20046;-60
2022/03/31 08:11:10;;;;;;;58.45;12.13;;;14.50;80.30;;;;;;5081035;27;20039;-60
2022/03/31 08:13:36;;;;;;;42.13;10.32;;;14.50;80.50;;;;;;5112671;27;20103;-59
2022/03/31 08:16:02;;;;;;;48.45;11.85;;;14.50;80.50;;;;;;5095582;27;20035;-59
2022/03/31 08:18:32;;;;;;;46.30;11.50;;;14.50;80.50;;;;;;5111596;27;20107;-60
2022/03/31 08:20:57;;;;;;;40.33;10.40;;;14.50;80.50;;;;;;5093724;27;20061;-60
2022/03/31 08:23:23;;;;;;;57.88;11.77;;;14.50;80.40;;;;;;5095966;27;20020;-59
2022/03/31 08:25:49;;;;;;;30.77;10.18;;;14.50;80.30;;;;;;5117988;27;20027;-59
2022/03/31 08:28:15;;;;;;;53.95;11.05;;;14.60;80.20;;;;;;5103093;27;20023;-59
2022/03/31 08:30:40;;;;;;;40.22;10.73;;;14.60;80.50;;;;;;5083235;27;20063;-59
2022/03/31 08:33:05;;;;;;;41.28;10.30;;;14.60;80.20;;;;;;5074366;28;20062;-59
2022/03/31 08:35:31;;;;;;;41.88;9.60;;;14.60;79.90;;;;;;5077356;28;20046;-59
2022/03/31 08:37:57;;;;;;;46.10;10.68;;;14.70;79.90;;;;;;5074639;27;20733;-59
2022/03/31 08:40:22;;;;;;;42.00;10.80;;;14.60;79.80;;;;;;5100172;27;20031;-60
2022/03/31 08:42:48;;;;;;;41.35;10.27;;;14.70;79.70;;;;;;5102481;27;20039;-60
2022/03/31 08:45:15;;;;;;;49.20;10.85;;;14.70;79.60;;;;;;5099976;27;20124;-60
2022/03/31 08:47:42;;;;;;;50.05;10.18;;;14.70;79.70;;;;;;5101125;27;20406;-59
2022/03/31 08:50:09;;;;;;;40.95;10.90;;;14.80;79.50;;;;;;5085529;28;20027;-60
2022/03/31 08:52:34;;;;;;;62.22;11.38;;;14.80;79.60;;;;;;5098047;27;20108;-59
2022/03/31 08:55:00;;;;;;;69.70;13.13;;;14.80;79.80;;;;;;5101004;27;20158;-60
2022/03/31 08:57:36;;;;;;;53.20;10.55;;;14.80;79.60;;;;;;5078346;28;20142;-60
2022/03/31 09:00:02;;;;;;;69.15;12.85;;;14.80;79.50;;;;;;5072270;27;20030;-60
2022/03/31 09:02:27;;;;;;;64.45;11.85;;;14.90;79.90;;;;;;5097516;27;20032;-59
2022/03/31 09:05:12;;;;;;;62.85;11.70;;;14.90;79.80;;;;;;5101432;27;20031;-60
2022/03/31 09:07:58;;;;;;;59.28;9.75;;;14.90;79.70;;;;;;5085171;28;20807;-59
2022/03/31 09:10:34;;;;;;;69.55;11.23;;;15.00;79.60;;;;;;5083824;28;20057;-60
2022/03/31 09:13:01;;;;;;;83.10;14.00;;;15.00;79.50;;;;;;5078908;27;20038;-59
2022/03/31 09:15:26;;;;;;;58.42;11.32;;;15.00;79.80;;;;;;5081858;28;20096;-60
2022/03/31 09:17:53;;;;;;;75.63;11.57;;;15.00;79.50;;;;;;5097124;27;20142;-60
2022/03/31 09:20:20;;;;;;;62.97;10.80;;;15.00;79.40;;;;;;5080721;27;20050;-60
2022/03/31 09:22:48;;;;;;;71.43;11.10;;;15.10;79.40;;;;;;5101810;27;20024;-60
2022/03/31 09:25:22;;;;;;;65.47;12.40;;;15.10;79.50;;;;;;5096543;27;20063;-60
2022/03/31 09:27:48;;;;;;;118.55;17.50;;;15.10;79.40;;;;;;5082227;28;20106;-59
2022/03/31 09:30:15;;;;;;;75.68;13.48;;;15.10;79.80;;;;;;5104034;27;20131;-59
2022/03/31 09:32:51;;;;;;;218.43;24.08;;;15.10;79.70;;;;;;5096949;27;20023;-60
2022/03/31 09:35:20;;;;;;;119.10;15.93;;;15.20;79.80;;;;;;5077417;28;20463;-60
2022/03/31 09:37:48;;;;;;;102.32;14.77;;;15.20;80.40;;;;;;5099166;28;20103;-59
2022/03/31 09:40:13;;;;;;;104.78;14.85;;;15.30;79.70;;;;;;5084339;28;20461;-59
2022/03/31 09:42:39;;;;;;;95.28;13.45;;;15.30;80.10;;;;;;5098177;27;20032;-60
2022/03/31 09:45:08;;;;;;;88.68;14.40;;;15.30;79.70;;;;;;5098360;27;20573;-60
2022/03/31 09:47:43;;;;;;;85.80;13.82;;;15.30;79.70;;;;;;5098269;27;20621;-59
2022/03/31 09:50:08;;;;;;;99.97;14.75;;;15.40;79.70;;;;;;5092776;28;20035;-60
2022/03/31 09:52:34;;;;;;;102.03;15.75;;;15.40;79.90;;;;;;5079534;28;20035;-60
2022/03/31 09:55:00;;;;;;;102.20;12.70;;;15.50;79.80;;;;;;5055597;28;20035;-60
2022/03/31 09:57:25;;;;;;;86.60;12.35;;;15.50;79.40;;;;;;5069212;28;20117;-60
2022/03/31 09:59:52;;;;;;;88.63;12.60;;;15.50;78.60;;;;;;5082354;28;20115;-59
2022/03/31 10:02:18;;;;;;;83.47;13.35;;;15.60;78.50;;;;;;5097221;28;20024;-60
2022/03/31 10:04:46;;;;;;;75.68;12.77;;;15.60;78.30;;;;;;5059338;28;20454;-60
2022/03/31 10:07:11;;;;;;;67.90;11.68;;;15.60;78.20;;;;;;5093464;28;20308;-60
2022/03/31 10:09:39;;;;;;;87.65;12.20;;;15.70;78.20;;;;;;5059122;27;20345;-59
2022/03/31 10:12:14;;;;;;;67.80;11.38;;;15.70;78.10;;;;;;5079700;28;20019;-60
2022/03/31 10:14:53;;;;;;;104.25;13.68;;;15.70;77.80;;;;;;5098970;27;20491;-59
2022/03/31 10:17:25;;;;;;;98.55;12.48;;;15.80;77.80;;;;;;5075604;27;20054;-60
2022/03/31 10:19:50;;;;;;;84.55;14.45;;;15.80;77.90;;;;;;5064248;27;20024;-60
2022/03/31 10:25:10;;;;;;;99.65;13.07;;;15.90;77.90;;;;;;5069463;27;20708;-60
2022/03/31 10:27:37;;;;;;;116.68;15.82;;;15.90;77.80;;;;;;5097530;27;20040;-60
2022/03/31 10:30:34;;;;;;;106.97;13.88;;;15.90;77.70;;;;;;5067757;27;20055;-61
2022/03/31 10:33:02;;;;;;;92.30;12.52;;;15.90;77.60;;;;;;5108520;27;20079;-60
2022/03/31 10:35:38;;;;;;;95.47;13.02;;;16.00;77.50;;;;;;5098084;27;20035;-60
2022/03/31 10:38:17;;;;;;;73.32;12.73;;;16.00;77.40;;;;;;5106508;27;20803;-60
2022/03/31 10:40:45;;;;;;;82.20;13.27;;;16.10;77.30;;;;;;5099947;27;20692;-60
2022/03/31 10:43:29;;;;;;;75.20;11.63;;;16.10;77.00;;;;;;5099820;27;20024;-59
2022/03/31 10:45:56;;;;;;;66.45;12.07;;;16.10;76.90;;;;;;5093993;27;20031;-60
2022/03/31 10:48:24;;;;;;;75.53;11.85;;;16.20;76.90;;;;;;5094271;27;20059;-59
2022/03/31 10:51:06;;;;;;;75.30;13.48;;;16.10;76.70;;;;;;5106305;27;20552;-60
2022/03/31 10:53:33;;;;;;;78.75;13.13;;;16.20;76.80;;;;;;5089999;27;20027;-60
2022/03/31 10:56:00;;;;;;;60.05;12.05;;;16.20;77.00;;;;;;5083434;27;20023;-60
2022/03/31 10:58:26;;;;;;;63.92;12.68;;;16.20;76.90;;;;;;5088861;27;20031;-60
2022/03/31 11:00:52;;;;;;;81.13;12.95;;;16.20;76.70;;;;;;5095170;27;20035;-60
2022/03/31 11:03:19;;;;;;;97.50;14.30;;;16.20;76.60;;;;;;5095100;27;20026;-60
2022/03/31 11:05:45;;;;;;;74.38;12.95;;;16.20;76.60;;;;;;5077339;28;20054;-60
2022/03/31 11:08:16;;;;;;;66.60;12.93;;;16.20;76.70;;;;;;5112135;27;20030;-60
2022/03/31 11:10:43;;;;;;;70.93;13.00;;;16.20;76.60;;;;;;5108952;27;20482;-60
2022/03/31 11:13:09;;;;;;;78.68;13.20;;;16.20;76.60;;;;;;5113043;27;20051;-60
2022/03/31 11:15:34;;;;;;;90.82;13.27;;;16.20;76.50;;;;;;5096877;27;20559;-60
2022/03/31 11:18:00;;;;;;;95.55;12.98;;;16.20;76.70;;;;;;5081566;27;20024;-60
2022/03/31 11:20:26;;;;;;;76.05;10.48;;;16.20;76.50;;;;;;5108384;27;20084;-60
2022/03/31 11:22:54;;;;;;;64.80;11.02;;;16.20;76.30;;;;;;5070293;27;20035;-60
2022/03/31 11:25:20;;;;;;;47.17;10.68;;;16.20;76.00;;;;;;5093950;27;20035;-60
2022/03/31 11:27:46;;;;;;;63.30;10.85;;;16.20;76.00;;;;;;5092602;27;20093;-60
2022/03/31 11:30:18;;;;;;;52.03;10.02;;;16.20;75.80;;;;;;5088275;28;20132;-60
2022/03/31 11:32:43;;;;;;;45.92;9.98;;;16.20;75.80;;;;;;5071439;27;20085;-60
2022/03/31 11:35:10;;;;;;;73.22;9.35;;;16.20;75.90;;;;;;5075584;28;20035;-60
2022/03/31 11:37:44;;;;;;;70.45;10.73;;;16.20;75.60;;;;;;5057416;28;20424;-60
2022/03/31 11:40:12;;;;;;;50.75;10.13;;;16.20;75.80;;;;;;5061578;27;20859;-60
2022/03/31 11:42:43;;;;;;;53.05;8.95;;;16.20;75.80;;;;;;5074577;27;20110;-60
2022/03/31 11:45:09;;;;;;;59.90;10.38;;;16.20;75.50;;;;;;5095447;27;20051;-60
2022/03/31 11:47:35;;;;;;;60.03;10.30;;;16.10;75.50;;;;;;5090764;27;21685;-60
2022/03/31 11:50:00;;;;;;;41.75;9.32;;;16.10;75.70;;;;;;5095378;27;20038;-61
2022/03/31 11:52:32;;;;;;;41.08;9.13;;;16.10;75.70;;;;;;5054927;28;20030;-60
2022/03/31 11:55:00;;;;;;;65.47;8.77;;;16.00;75.60;;;;;;5079375;28;20031;-60
2022/03/31 11:57:27;;;;;;;37.83;8.07;;;16.10;76.00;;;;;;5077111;28;20023;-60
2022/03/31 11:59:52;;;;;;;57.45;9.43;;;16.10;75.90;;;;;;5052827;28;20047;-60
2022/03/31 12:02:18;;;;;;;44.53;8.15;;;16.00;76.20;;;;;;5098302;27;20113;-60
2022/03/31 12:04:45;;;;;;;45.95;9.50;;;16.00;76.00;;;;;;5078788;27;20027;-60
2022/03/31 12:07:11;;;;;;;48.90;8.82;;;16.00;75.90;;;;;;5058774;28;20038;-60
2022/03/31 12:09:38;;;;;;;74.72;11.55;;;16.00;75.80;;;;;;5102237;27;20024;-60
2022/03/31 12:12:06;;;;;;;61.75;8.73;;;16.00;75.90;;;;;;5077384;27;20027;-60
2022/03/31 12:14:34;;;;;;;77.47;10.60;;;16.00;75.70;;;;;;5097855;27;20119;-60
2022/03/31 12:16:59;;;;;;;84.95;13.32;;;16.00;75.50;;;;;;5059615;27;20039;-60
2022/03/31 12:19:25;;;;;;;55.53;9.27;;;16.00;75.70;;;;;;5093157;27;20075;-60
2022/03/31 12:21:58;;;;;;;48.63;8.13;;;16.00;75.70;;;;;;5062901;27;20024;-60
2022/03/31 12:24:24;;;;;;;58.80;8.52;;;15.90;75.30;;;;;;5078307;27;20027;-59
2022/03/31 12:26:55;;;;;;;41.42;7.65;;;15.90;75.40;;;;;;5066410;27;20032;-59
2022/03/31 12:29:25;;;;;;;54.78;9.35;;;16.00;75.60;;;;;;5100974;27;20023;-60
2022/03/31 12:32:01;;;;;;;48.25;8.02;;;15.90;75.80;;;;;;5095357;28;20103;-59
2022/03/31 12:34:26;;;;;;;59.90;8.95;;;15.90;75.70;;;;;;5059075;28;20039;-59
2022/03/31 12:36:52;;;;;;;37.22;7.20;;;15.90;76.00;;;;;;5093782;28;20100;-60